createdAt,value
2022-08-26T00:01:30.081Z,0
2022-08-26T00:06:56.364Z,0
2022-08-26T00:12:37.869Z,0
2022-08-26T00:18:01.226Z,0
2022-08-26T00:23:24.511Z,0
2022-08-26T00:28:51.076Z,0
2022-08-26T00:34:15.444Z,0
2022-08-26T00:39:38.120Z,0
2022-08-26T00:45:00.670Z,0
2022-08-26T00:50:23.242Z,0
2022-08-26T00:55:46.052Z,0
2022-08-26T01:01:11.445Z,0
2022-08-26T01:06:34.140Z,0
2022-08-26T01:11:56.482Z,0
2022-08-26T01:17:18.921Z,0
2022-08-26T01:22:41.422Z,0
2022-08-26T01:28:20.344Z,0
2022-08-26T01:33:42.818Z,0
2022-08-26T01:55:02.830Z,0
2022-08-26T02:00:27.472Z,0
2022-08-26T02:05:51.785Z,0
2022-08-26T02:11:36.747Z,0
2022-08-26T02:17:00.105Z,0
2022-08-26T02:22:25.101Z,0
2022-08-26T02:27:47.480Z,0
2022-08-26T02:33:09.967Z,0
2022-08-26T02:38:36.418Z,0
2022-08-26T02:43:59.990Z,0
2022-08-26T02:49:22.829Z,0
2022-08-26T02:54:51.167Z,0
2022-08-26T03:00:13.928Z,0
2022-08-26T03:05:55.303Z,0
2022-08-26T03:11:17.956Z,0
2022-08-26T03:16:48.696Z,0
2022-08-26T03:22:11.441Z,0
2022-08-26T03:27:37.197Z,0
2022-08-26T03:43:47.806Z,0
2022-08-26T03:49:29.817Z,0
2022-08-26T03:54:53.612Z,0
2022-08-26T04:00:19.474Z,0
2022-08-26T04:05:48.941Z,0
2022-08-26T04:12:45.382Z,0
2022-08-26T04:23:17.640Z,0
2022-08-26T04:28:42.041Z,0
2022-08-26T04:44:15.004Z,12
2022-08-26T04:49:38.056Z,21
2022-08-26T05:00:06.374Z,33.3
2022-08-26T05:05:29.576Z,37.7
2022-08-26T05:10:52.064Z,43.4
2022-08-26T05:16:19.200Z,47.7
2022-08-26T05:21:43.054Z,55.1
2022-08-26T05:27:15.031Z,48.7
2022-08-26T05:32:37.777Z,87.8
2022-08-26T05:38:00.427Z,85.5
2022-08-26T05:43:23.006Z,68.3
2022-08-26T05:48:53.341Z,75.3
2022-08-26T05:54:22.784Z,63.3
2022-08-26T05:59:46.234Z,64.7
2022-08-26T06:05:11.522Z,78.8
2022-08-26T06:10:35.193Z,86
2022-08-26T06:15:58.511Z,55.3
2022-08-26T06:21:21.192Z,83.7
2022-08-26T06:32:14.027Z,120.6
2022-08-26T06:37:37.057Z,134
2022-08-26T06:42:59.635Z,129.6
2022-08-26T06:48:22.545Z,208
2022-08-26T06:53:49.020Z,161.3
2022-08-26T06:59:12.670Z,213.7
2022-08-26T07:04:36.822Z,231.7
2022-08-26T07:09:59.559Z,277
2022-08-26T07:21:04.703Z,286.5
2022-08-26T07:26:29.654Z,260.3
2022-08-26T07:31:56.956Z,356.3
2022-08-26T07:37:20.764Z,384.1
2022-08-26T07:42:43.324Z,380.1
2022-08-26T07:48:05.900Z,279.4
2022-08-26T07:58:52.487Z,450.5
2022-08-26T08:04:15.789Z,330
2022-08-26T08:09:43.958Z,243.5
2022-08-26T08:15:06.496Z,348.4
2022-08-26T08:20:30.382Z,566.6
2022-08-26T08:26:34.424Z,599.5
2022-08-26T08:32:00.215Z,532.7
2022-08-26T08:37:22.810Z,509.9
2022-08-26T08:42:47.350Z,472.7
2022-08-26T08:48:12.814Z,360.3
2022-08-26T08:53:35.281Z,394.6
2022-08-26T08:59:01.787Z,391.3
2022-08-26T09:04:25.256Z,399.2
2022-08-26T09:09:51.160Z,308
2022-08-26T09:15:15.056Z,290
2022-08-26T09:20:41.196Z,393
2022-08-26T09:26:04.803Z,330.8
2022-08-26T09:31:27.791Z,258.1
2022-08-26T09:47:39.682Z,262.7
2022-08-26T09:53:13.413Z,222.1
2022-08-26T10:04:07.089Z,283.7
2022-08-26T10:09:33.566Z,345.2
2022-08-26T10:14:56.560Z,306.1
2022-08-26T10:20:24.429Z,332.4
2022-08-26T10:25:47.301Z,395.4
2022-08-26T10:31:09.943Z,507.2
2022-08-26T10:37:15.961Z,450.4
2022-08-26T10:42:44.855Z,306.2
2022-08-26T10:48:09.448Z,479.3
2022-08-26T10:53:33.100Z,463
2022-08-26T10:58:58.692Z,497.3
2022-08-26T11:04:23.168Z,264.5
2022-08-26T11:09:47.099Z,325
2022-08-26T11:15:09.695Z,368.1
2022-08-26T11:26:02.118Z,328.7
2022-08-26T11:31:27.509Z,332.6
2022-08-26T11:36:50.779Z,302.1
2022-08-26T11:47:38.067Z,648.6
2022-08-26T11:53:03.077Z,607.3
2022-08-26T11:58:26.900Z,544.2
2022-08-26T12:03:50.934Z,593.4
2022-08-26T12:09:15.475Z,600.6
2022-08-26T12:14:42.419Z,452.7
2022-08-26T12:20:05.672Z,426.5
2022-08-26T12:25:38.984Z,355
2022-08-26T12:31:01.990Z,279.2
2022-08-26T12:36:24.341Z,307.7
2022-08-26T12:41:46.919Z,504.4
2022-08-26T12:47:10.174Z,789.3
2022-08-26T12:52:32.537Z,714.4
2022-08-26T12:58:03.969Z,643.8
2022-08-26T13:03:26.701Z,538.9
2022-08-26T13:08:51.670Z,654.1
2022-08-26T13:14:24.945Z,670.8
2022-08-26T13:20:04.517Z,804.7
2022-08-26T13:25:27.612Z,575.3
2022-08-26T13:30:49.803Z,427.1
2022-08-26T13:41:37.365Z,315.5
2022-08-26T13:47:00.040Z,515.8
2022-08-26T13:52:31.453Z,590
2022-08-26T13:57:54.499Z,639.3
2022-08-26T14:03:17.462Z,592.1
2022-08-26T14:14:16.576Z,754.2
2022-08-26T14:19:39.578Z,691.9
2022-08-26T14:25:01.811Z,576.2
2022-08-26T14:30:24.252Z,577.6
2022-08-26T14:35:50.132Z,579.1
2022-08-26T14:41:12.622Z,561.9
2022-08-26T14:46:35.509Z,394.3
2022-08-26T14:51:58.099Z,382.6
2022-08-26T14:57:33.119Z,267.3
2022-08-26T15:02:56.354Z,270
2022-08-26T15:08:18.905Z,274.6
2022-08-26T15:13:41.388Z,259.3
2022-08-26T15:19:04.163Z,223.2
2022-08-26T15:24:26.400Z,230.5
2022-08-26T15:29:49.178Z,173.9
2022-08-26T15:35:16.943Z,210.1
2022-08-26T15:46:02.448Z,197.5
2022-08-26T15:51:30.643Z,230.7
2022-08-26T15:56:53.659Z,228.7
2022-08-26T16:02:16.955Z,235.3
2022-08-26T16:07:39.635Z,276.6
2022-08-26T16:18:28.078Z,245.5
2022-08-26T16:23:50.607Z,231.4
2022-08-26T16:34:57.212Z,299
2022-08-26T16:40:20.251Z,293.5
2022-08-26T16:45:45.111Z,352.5
2022-08-26T16:51:07.885Z,342.7
2022-08-26T16:56:36.332Z,366
2022-08-26T17:01:59.122Z,378.4
2022-08-26T17:07:21.624Z,376.3
2022-08-26T17:13:01.553Z,369.8
2022-08-26T17:18:24.332Z,263.6
2022-08-26T17:23:46.919Z,231.2
2022-08-26T17:29:12.286Z,202.5
2022-08-26T17:34:34.663Z,185.1
2022-08-26T17:40:08.401Z,164.3
2022-08-26T17:50:53.433Z,41.1
2022-08-26T17:56:15.900Z,38.5
2022-08-26T18:07:08.642Z,39.7
2022-08-26T18:12:30.809Z,36.3
2022-08-26T18:18:08.273Z,32
2022-08-26T18:23:31.778Z,28.1
2022-08-26T18:28:54.268Z,26
2022-08-26T18:34:17.292Z,23
2022-08-26T18:45:13.389Z,11
2022-08-26T18:50:38.659Z,0
2022-08-26T18:56:03.658Z,0
2022-08-26T19:01:28.400Z,0
2022-08-26T19:06:51.095Z,0
2022-08-26T19:12:19.025Z,0
2022-08-26T19:18:29.324Z,0
2022-08-26T19:23:52.073Z,0
2022-08-26T19:34:46.112Z,0
2022-08-26T19:40:08.949Z,0
2022-08-26T19:45:31.533Z,0
2022-08-26T19:50:54.118Z,0
2022-08-26T20:02:02.649Z,0
2022-08-26T20:07:25.789Z,0
2022-08-26T20:12:49.291Z,0
2022-08-26T20:18:13.272Z,0
2022-08-26T20:23:36.710Z,0
2022-08-26T20:29:07.276Z,0
2022-08-26T20:34:29.581Z,0
2022-08-26T20:50:07.271Z,0
2022-08-26T20:55:38.750Z,0
2022-08-26T21:11:53.727Z,0
2022-08-26T21:17:16.442Z,0
2022-08-26T21:22:38.909Z,0
2022-08-26T21:28:01.520Z,0
2022-08-26T21:33:32.479Z,0
2022-08-26T21:38:56.107Z,0
2022-08-26T21:44:18.385Z,0
2022-08-26T21:49:41.127Z,0
2022-08-26T21:55:12.777Z,0
2022-08-26T22:00:35.454Z,0
2022-08-26T22:05:57.869Z,0
2022-08-26T22:11:20.386Z,0
2022-08-26T22:16:51.336Z,0
2022-08-26T22:22:13.753Z,0
2022-08-26T22:27:43.113Z,0
2022-08-26T22:33:05.718Z,0
2022-08-26T22:38:28.248Z,0
2022-08-26T22:43:50.886Z,0
2022-08-26T22:49:13.282Z,0
2022-08-26T22:59:58.218Z,0
2022-08-26T23:05:27.875Z,0
2022-08-26T23:10:51.963Z,0
2022-08-26T23:16:21.136Z,0
2022-08-26T23:21:44.020Z,0
2022-08-26T23:27:06.388Z,0
2022-08-26T23:32:32.158Z,0
2022-08-26T23:37:59.106Z,0
2022-08-26T23:43:22.478Z,0
2022-08-26T23:48:45.338Z,0
2022-08-26T23:54:08.470Z,0
